createdAt,value
2023-02-14T05:45:24.061Z,100011.88
2023-02-14T05:50:25.775Z,100019.47
2023-02-14T05:55:27.413Z,100017.91
2023-02-14T06:00:29.482Z,100024.09
2023-02-14T06:05:31.114Z,100020.53
2023-02-14T06:10:32.962Z,100014.34
2023-02-14T06:15:38.224Z,99984.84
2023-02-14T06:20:39.984Z,100027.47
2023-02-14T06:25:41.704Z,100001.28
2023-02-14T06:30:43.472Z,100020.59
2023-02-14T06:35:45.234Z,100011.75
2023-02-14T06:40:46.860Z,100017.81
2023-02-14T06:45:48.571Z,100008.06
2023-02-14T06:50:50.293Z,100016.81
2023-02-14T06:55:51.998Z,100011.56
2023-02-14T07:00:58.008Z,100032.44
2023-02-14T07:06:00.053Z,99981.88
2023-02-14T07:11:02.072Z,99994.91
2023-02-14T07:16:04.191Z,100015.88
2023-02-14T07:21:05.990Z,100016.63
2023-02-14T07:26:07.657Z,100005.53
2023-02-14T07:31:09.422Z,99999.09
2023-02-14T07:36:11.539Z,100012.38
2023-02-14T07:41:13.165Z,100012.44
2023-02-14T07:46:14.948Z,99988.75
2023-02-14T07:51:16.643Z,100011.41
2023-02-14T07:56:18.364Z,100014.97
2023-02-14T08:01:21.355Z,100003.41
2023-02-14T08:06:23.058Z,100009.25
2023-02-14T08:11:43.440Z,100000.72
2023-02-14T08:16:45.110Z,100012.03
2023-02-14T08:21:46.833Z,100006.09
2023-02-14T08:26:48.451Z,100006.81
2023-02-14T08:31:50.244Z,100004.16
2023-02-14T08:36:52.148Z,99999.56
2023-02-14T08:41:53.755Z,99998.78
2023-02-14T08:46:55.595Z,100000.53
2023-02-14T08:51:57.322Z,99993.56
2023-02-14T08:56:59.009Z,99992.53
2023-02-14T09:02:00.623Z,100002.44
2023-02-14T09:07:04.617Z,100007.25
2023-02-14T09:12:08.452Z,100002.66
2023-02-14T09:17:13.888Z,100005.19
2023-02-14T09:22:15.679Z,99996.44
2023-02-14T09:27:17.335Z,100000.59
2023-02-14T09:32:19.470Z,100005.91
2023-02-14T09:37:21.216Z,100001.44
2023-02-14T09:42:40.339Z,99999.78
2023-02-14T09:47:55.502Z,99994.38
2023-02-14T09:53:01.680Z,99999.56
2023-02-14T09:58:23.266Z,99998.72
2023-02-14T10:03:47.562Z,100000.53
2023-02-14T10:09:02.553Z,100011.09
2023-02-14T10:14:15.891Z,100008.72
2023-02-14T10:19:21.172Z,99994.47
2023-02-14T10:24:37.594Z,99996.66
2023-02-14T10:29:41.651Z,99982.84
2023-02-14T10:34:56.703Z,99989.13
2023-02-14T10:40:40.606Z,99993.50
2023-02-14T10:46:06.951Z,99989.25
2023-02-14T10:51:15.514Z,99983.41
2023-02-14T10:56:28.171Z,99984.16
2023-02-14T11:01:30.365Z,99962.78
2023-02-14T11:06:32.851Z,99976.25
2023-02-14T11:11:46.727Z,99960.13
2023-02-14T11:16:52.008Z,99956.41
2023-02-14T11:21:56.640Z,99924.00
2023-02-14T11:27:02.316Z,99928.00
2023-02-14T11:32:14.615Z,99934.56
2023-02-14T11:37:22.433Z,99941.66
2023-02-14T11:42:35.780Z,99929.09
2023-02-14T11:47:41.498Z,99925.72
2023-02-14T11:52:51.942Z,99925.06
2023-02-14T11:57:54.736Z,99925.25
2023-02-14T12:02:59.239Z,99922.78
2023-02-14T12:08:04.115Z,99909.34
2023-02-14T12:13:09.034Z,99907.66
2023-02-14T12:18:22.720Z,99899.00
2023-02-14T12:23:36.900Z,99885.03
2023-02-14T12:28:50.313Z,99885.25
2023-02-14T12:33:51.994Z,99863.47
2023-02-14T12:39:02.562Z,99879.56
2023-02-14T12:44:07.642Z,99876.44
2023-02-14T12:49:28.331Z,99867.50
2023-02-14T12:54:37.208Z,99871.16
2023-02-14T13:00:08.017Z,99845.06
2023-02-14T13:05:28.363Z,99856.53
2023-02-14T13:10:48.653Z,99856.56
2023-02-14T13:16:27.829Z,99845.75
2023-02-14T13:21:33.680Z,99836.31
2023-02-14T13:26:40.054Z,99832.94
2023-02-14T13:31:42.261Z,99841.69
2023-02-14T13:36:45.518Z,99848.06
2023-02-14T13:41:47.185Z,99829.09
2023-02-14T13:46:52.043Z,99836.47
2023-02-14T13:51:56.093Z,99828.78
2023-02-14T13:56:59.849Z,99816.72
2023-02-14T14:02:28.298Z,99831.59
2023-02-14T14:07:31.686Z,99828.56
2023-02-14T14:12:37.613Z,99825.34
2023-02-14T14:17:46.043Z,99830.72
2023-02-14T14:22:51.946Z,99822.91
2023-02-14T14:27:53.734Z,99833.09
2023-02-14T14:32:55.426Z,99831.22
2023-02-14T14:37:59.036Z,99804.53
2023-02-14T14:43:24.427Z,99816.56
2023-02-14T14:48:39.554Z,99813.66
2023-02-14T14:53:46.083Z,99818.66
2023-02-14T14:58:48.073Z,99816.28
2023-02-14T15:03:50.058Z,99817.97
2023-02-14T15:08:52.103Z,99797.22
2023-02-14T15:13:54.051Z,99814.88
2023-02-14T15:19:07.433Z,99813.75
2023-02-14T15:24:14.755Z,99805.97
2023-02-14T15:29:26.774Z,99808.19
2023-02-14T15:34:32.950Z,99808.47
2023-02-14T15:39:42.572Z,99806.38
2023-02-14T15:44:44.859Z,99813.59
2023-02-14T15:49:46.759Z,99807.50
2023-02-14T15:54:48.612Z,99808.97
2023-02-14T15:59:50.658Z,99804.66
2023-02-14T16:04:52.391Z,99788.94
2023-02-14T16:10:24.855Z,99803.72
2023-02-14T16:15:29.539Z,99796.22
2023-02-14T16:20:37.308Z,99796.38
2023-02-14T16:25:41.302Z,99782.88
2023-02-14T16:30:45.569Z,99765.78
2023-02-14T16:35:48.991Z,99803.72
2023-02-14T16:40:53.171Z,99814.19
2023-02-14T16:45:54.894Z,99818.19
2023-02-14T16:50:57.447Z,99810.53
2023-02-14T16:56:01.381Z,99817.72
2023-02-14T17:01:03.655Z,99811.31
2023-02-14T17:06:08.208Z,99801.75
2023-02-14T17:11:10.492Z,99806.88
2023-02-14T17:16:15.680Z,99807.88
2023-02-14T17:21:21.393Z,99815.22
2023-02-14T17:26:23.824Z,99811.00
2023-02-14T17:31:25.758Z,99810.81
2023-02-14T17:36:27.902Z,99807.69
2023-02-14T17:41:29.664Z,99810.19
2023-02-14T17:46:32.125Z,99805.22
2023-02-14T17:51:33.871Z,99813.13
2023-02-14T17:56:35.514Z,99810.44
2023-02-14T18:01:37.201Z,99822.69
2023-02-14T18:06:40.346Z,99793.31
2023-02-14T18:11:44.433Z,99806.28
2023-02-14T18:16:46.795Z,99821.31
2023-02-14T18:21:48.528Z,99820.25
2023-02-14T18:26:50.320Z,99810.16
2023-02-14T18:31:52.237Z,99810.81
2023-02-14T18:36:54.920Z,99808.97
2023-02-14T18:41:59.985Z,99812.34
2023-02-14T18:47:02.882Z,99795.91
2023-02-14T18:52:05.129Z,99798.66
2023-02-14T18:57:06.968Z,99804.81
2023-02-14T19:02:09.401Z,99794.06
2023-02-14T19:07:11.326Z,99790.31
2023-02-14T19:12:13.923Z,99795.00
2023-02-14T19:17:17.005Z,99785.03
2023-02-14T19:22:19.028Z,99786.94
2023-02-14T19:27:21.621Z,99786.09
2023-02-14T19:32:23.529Z,99776.41
2023-02-14T19:37:26.852Z,99781.41
2023-02-14T19:42:28.525Z,99756.34
2023-02-14T19:47:45.932Z,99766.34
2023-02-14T19:52:48.574Z,99747.13
2023-02-14T19:57:50.322Z,99757.81
2023-02-14T20:02:52.238Z,99751.94
2023-02-14T20:07:56.730Z,99767.72
2023-02-14T20:12:58.529Z,99748.38
2023-02-14T20:18:00.495Z,99759.44
2023-02-14T20:23:02.100Z,99755.06
2023-02-14T20:28:03.728Z,99752.94
2023-02-14T20:33:06.041Z,99764.34
2023-02-14T20:38:08.201Z,99759.22
2023-02-14T20:43:09.842Z,99751.94
2023-02-14T20:48:11.463Z,99752.41
2023-02-14T20:53:13.207Z,99746.91
2023-02-14T20:58:14.824Z,99734.78
2023-02-14T21:03:16.496Z,99736.53
2023-02-14T21:08:18.494Z,99724.91
2023-02-14T21:13:20.463Z,99732.47
2023-02-14T21:18:22.635Z,99739.00
2023-02-14T21:23:24.257Z,99730.84
